Time;durP1;ratioP1;P1;durP2;ratioP2;P2;SDS_P1;SDS_P2;PMS_P1;PMS_P2;Temp;Humidity;BMP_temperature;BMP_pressure;BME280_temperature;BME280_humidity;BME280_pressure;Samples;Min_cycle;Max_cycle;Signal;HPM_P1;HPM_P2
2022/06/09 00:00:15;;;;;;;52.88;20.50;;;14.50;99.90;;;;;;6219544;23;20446;-80
2022/06/09 00:02:43;;;;;;;56.85;22.00;;;14.50;99.90;;;;;;6244867;23;20455;-80
2022/06/09 00:05:13;;;;;;;52.58;21.08;;;14.50;99.90;;;;;;6219506;23;20026;-80
2022/06/09 00:07:40;;;;;;;62.45;23.13;;;14.50;99.90;;;;;;6219304;23;20012;-80
2022/06/09 00:10:10;;;;;;;56.08;20.42;;;14.50;99.90;;;;;;6245420;22;20300;-80
2022/06/09 00:12:36;;;;;;;50.90;19.48;;;14.40;99.90;;;;;;6244705;23;20012;-80
2022/06/09 00:15:04;;;;;;;;;;;14.40;99.90;;;;;;6219990;23;20014;-80
2022/06/09 00:17:30;;;;;;;50.63;21.80;;;14.40;99.90;;;;;;6244691;23;19982;-80
2022/06/09 00:19:56;;;;;;;45.15;19.30;;;14.30;99.90;;;;;;6219431;23;20070;-79
2022/06/09 00:22:22;;;;;;;45.33;20.50;;;14.30;99.90;;;;;;6245415;23;20354;-80
2022/06/09 00:24:48;;;;;;;47.30;20.35;;;14.30;99.90;;;;;;6219238;23;20016;-80
2022/06/09 00:27:14;;;;;;;51.92;22.50;;;14.20;99.90;;;;;;6244589;23;20016;-80
2022/06/09 00:29:42;;;;;;;61.85;22.60;;;14.20;99.90;;;;;;6219787;23;20008;-81
2022/06/09 00:32:11;;;;;;;56.78;22.17;;;14.20;99.90;;;;;;6219208;23;20062;-80
2022/06/09 00:34:36;;;;;;;55.45;22.02;;;14.20;99.90;;;;;;6245134;23;20500;-81
2022/06/09 00:37:02;;;;;;;56.88;22.30;;;14.10;99.90;;;;;;6244588;23;20020;-81
2022/06/09 00:39:28;;;;;;;54.67;22.23;;;14.10;99.90;;;;;;6244678;22;20022;-80
2022/06/09 00:41:55;;;;;;;64.03;24.08;;;14.00;99.90;;;;;;6219704;23;20008;-80
2022/06/09 00:44:27;;;;;;;59.65;25.50;;;14.00;99.90;;;;;;6244515;23;20035;-80
2022/06/09 00:47:04;;;;;;;54.55;22.73;;;13.90;99.90;;;;;;6244798;23;20023;-80
2022/06/09 00:49:46;;;;;;;49.20;22.55;;;13.80;99.90;;;;;;6244181;22;20413;-80
2022/06/09 00:52:18;;;;;;;53.67;23.00;;;13.80;99.90;;;;;;6219420;23;20016;-80
2022/06/09 00:54:47;;;;;;;62.47;24.10;;;13.80;99.90;;;;;;6217428;23;20008;-80
2022/06/09 00:57:28;;;;;;;62.08;24.10;;;13.70;99.90;;;;;;6244243;23;20043;-80
2022/06/09 00:59:59;;;;;;;67.63;25.95;;;13.70;99.90;;;;;;6219303;23;20334;-80
2022/06/09 01:02:28;;;;;;;48.35;23.10;;;13.60;99.90;;;;;;6243674;23;20452;-80
2022/06/09 01:04:54;;;;;;;67.32;25.50;;;13.60;99.90;;;;;;6245143;23;20517;-80
2022/06/09 01:07:26;;;;;;;72.25;26.02;;;13.50;99.90;;;;;;6243663;23;20047;-80
2022/06/09 01:09:54;;;;;;;69.75;27.50;;;13.50;99.90;;;;;;6243680;22;20504;-80
2022/06/09 01:12:35;;;;;;;55.08;24.05;;;13.40;99.90;;;;;;6218032;23;20019;-79
2022/06/09 01:15:12;;;;;;;64.40;25.88;;;13.30;99.90;;;;;;6218939;23;20419;-80
2022/06/09 01:17:58;;;;;;;57.58;26.77;;;13.30;99.90;;;;;;6217793;23;20012;-80
2022/06/09 01:20:39;;;;;;;63.03;28.67;;;13.30;99.90;;;;;;6219095;23;20043;-80
2022/06/09 01:23:32;;;;;;;54.10;25.60;;;13.30;99.90;;;;;;6244352;23;20012;-80
2022/06/09 01:26:33;;;;;;;71.30;27.23;;;13.20;99.90;;;;;;6218708;23;20012;-81
2022/06/09 01:29:04;;;;;;;66.18;26.38;;;13.20;99.90;;;;;;6218907;22;20012;-81
2022/06/09 01:32:08;;;;;;;72.68;28.50;;;13.10;99.90;;;;;;6220636;23;20066;-80
2022/06/09 01:34:41;;;;;;;78.78;28.00;;;13.10;99.90;;;;;;6246321;23;20312;-79
2022/06/09 01:37:28;;;;;;;55.25;24.55;;;13.00;99.90;;;;;;6246503;23;20154;-79
2022/06/09 01:40:01;;;;;;;62.83;26.40;;;13.00;99.90;;;;;;6246105;22;20016;-79
2022/06/09 01:42:39;;;;;;;51.97;23.77;;;12.90;99.90;;;;;;6219880;23;20016;-79
2022/06/09 01:45:20;;;;;;;62.08;25.42;;;12.90;99.90;;;;;;6219535;23;20013;-79
2022/06/09 01:48:04;;;;;;;63.63;24.25;;;12.80;99.90;;;;;;6220861;23;20095;-80
2022/06/09 01:50:36;;;;;;;41.95;20.77;;;12.80;99.90;;;;;;6245807;22;20091;-79
2022/06/09 01:53:06;;;;;;;36.08;19.52;;;12.80;99.90;;;;;;6246425;23;20026;-79
2022/06/09 01:55:36;;;;;;;62.75;20.45;;;12.70;99.90;;;;;;6245425;23;20017;-80
2022/06/09 01:58:05;;;;;;;41.10;18.52;;;12.70;99.90;;;;;;6220485;23;20020;-79
2022/06/09 02:00:31;;;;;;;60.70;20.30;;;12.70;99.90;;;;;;6220749;23;20023;-79
2022/06/09 02:03:05;;;;;;;58.63;24.08;;;12.60;99.90;;;;;;6220361;23;20061;-80
2022/06/09 02:05:37;;;;;;;40.92;18.02;;;12.60;99.90;;;;;;6220615;23;20097;-79
2022/06/09 02:08:06;;;;;;;47.53;20.17;;;12.60;99.90;;;;;;6220559;23;20020;-80
2022/06/09 02:10:41;;;;;;;38.05;18.67;;;12.50;99.90;;;;;;6219287;23;20014;-79
2022/06/09 02:13:15;;;;;;;50.08;18.95;;;12.50;99.90;;;;;;6220424;23;20431;-79
2022/06/09 02:15:47;;;;;;;39.75;17.83;;;12.50;99.90;;;;;;6220581;23;20439;-80
2022/06/09 02:18:22;;;;;;;44.13;19.63;;;12.40;99.90;;;;;;6220464;23;20095;-80
2022/06/09 02:21:14;;;;;;;36.83;18.73;;;12.40;99.90;;;;;;6245461;22;20012;-80
2022/06/09 02:23:40;;;;;;;39.90;20.48;;;12.40;99.90;;;;;;6244864;23;20016;-80
2022/06/09 02:26:06;;;;;;;34.47;18.67;;;12.40;99.90;;;;;;6220851;23;20077;-80
2022/06/09 02:28:33;;;;;;;30.20;17.20;;;12.30;99.90;;;;;;6246367;23;20019;-80
2022/06/09 02:30:59;;;;;;;40.03;21.00;;;12.40;99.90;;;;;;6220556;23;20022;-80
2022/06/09 02:33:25;;;;;;;37.65;22.10;;;12.40;99.90;;;;;;6245555;23;20052;-80
2022/06/09 02:35:54;;;;;;;44.63;20.55;;;12.40;99.90;;;;;;6220159;23;20405;-79
2022/06/09 02:38:22;;;;;;;44.28;24.00;;;12.50;99.90;;;;;;6220706;23;20043;-80
2022/06/09 02:40:48;;;;;;;42.78;23.50;;;12.50;99.90;;;;;;6245940;22;20443;-79
2022/06/09 02:43:13;;;;;;;;;;;12.60;99.90;;;;;;6245795;23;20019;-80
2022/06/09 02:45:40;;;;;;;27.88;18.38;;;12.60;99.90;;;;;;6220603;23;19915;-79
2022/06/09 02:48:07;;;;;;;33.80;20.35;;;12.70;99.90;;;;;;6245937;23;20113;-79
2022/06/09 02:50:34;;;;;;;41.67;22.58;;;12.70;99.90;;;;;;6220584;23;20016;-79
2022/06/09 02:53:00;;;;;;;39.55;20.15;;;12.70;99.90;;;;;;6245879;23;20024;-80
2022/06/09 02:55:27;;;;;;;37.13;20.52;;;12.80;99.90;;;;;;6220833;23;20077;-79
2022/06/09 02:57:52;;;;;;;31.60;20.75;;;12.80;99.90;;;;;;6220470;23;20023;-80
2022/06/09 03:00:19;;;;;;;35.35;21.30;;;12.90;99.90;;;;;;6220286;23;20008;-80
2022/06/09 03:02:54;;;;;;;38.47;20.60;;;12.90;99.90;;;;;;6218870;23;20019;-80
2022/06/09 03:05:20;;;;;;;33.88;21.02;;;12.90;99.90;;;;;;6244855;23;20335;-81
2022/06/09 03:07:46;;;;;;;37.03;22.35;;;12.90;99.90;;;;;;6219937;23;20047;-80
2022/06/09 03:10:12;;;;;;;32.72;22.27;;;13.00;99.90;;;;;;6219993;23;20012;-80
2022/06/09 03:12:38;;;;;;;36.28;23.70;;;13.00;99.90;;;;;;6244996;23;20008;-80
2022/06/09 03:15:07;;;;;;;34.17;24.33;;;13.10;99.90;;;;;;6245214;23;20008;-80
2022/06/09 03:17:35;;;;;;;39.92;26.17;;;13.10;99.90;;;;;;6245159;23;20074;-80
2022/06/09 03:20:02;;;;;;;38.85;26.20;;;13.20;99.90;;;;;;6218796;23;20319;-80
2022/06/09 03:22:30;;;;;;;40.05;25.17;;;13.20;99.90;;;;;;6245019;23;20012;-79
2022/06/09 03:24:55;;;;;;;38.60;24.35;;;13.20;99.90;;;;;;6219846;23;20019;-79
2022/06/09 03:27:21;;;;;;;41.08;27.58;;;13.20;99.90;;;;;;6219208;23;20016;-79
2022/06/09 03:29:47;;;;;;;40.30;27.92;;;13.20;99.90;;;;;;6244809;22;20043;-79
2022/06/09 03:32:13;;;;;;;39.03;25.83;;;13.20;99.90;;;;;;6218902;23;20012;-79
2022/06/09 03:34:39;;;;;;;39.88;27.15;;;13.20;99.90;;;;;;6219672;23;20039;-79
2022/06/09 03:37:04;;;;;;;36.80;25.42;;;13.20;99.90;;;;;;6220107;23;20022;-79
2022/06/09 03:39:30;;;;;;;40.33;26.80;;;13.30;99.90;;;;;;6219508;23;20062;-79
2022/06/09 03:41:56;;;;;;;47.08;29.63;;;13.30;99.90;;;;;;6244923;23;20043;-79
2022/06/09 03:44:24;;;;;;;42.67;27.40;;;13.30;99.90;;;;;;6245394;23;20338;-79
2022/06/09 03:46:50;;;;;;;45.47;29.92;;;13.30;99.90;;;;;;6219526;23;20015;-79
2022/06/09 03:49:15;;;;;;;41.35;29.20;;;13.40;99.90;;;;;;6220156;23;20012;-79
2022/06/09 03:51:41;;;;;;;45.42;30.67;;;13.40;99.90;;;;;;6219603;23;20439;-79
2022/06/09 03:54:07;;;;;;;48.10;29.75;;;13.40;99.90;;;;;;6244824;23;20051;-79
2022/06/09 03:56:33;;;;;;;;;;;13.40;99.90;;;;;;6220422;23;20016;-79
2022/06/09 03:58:59;;;;;;;45.00;29.80;;;13.50;99.90;;;;;;6219721;22;20228;-79
2022/06/09 04:01:25;;;;;;;47.97;30.35;;;13.50;99.90;;;;;;6219466;23;20020;-79
2022/06/09 04:03:51;;;;;;;42.25;27.30;;;13.50;99.90;;;;;;6244884;23;20019;-79
2022/06/09 04:06:22;;;;;;;33.40;24.98;;;13.60;99.90;;;;;;6219757;23;20016;-79
2022/06/09 04:08:48;;;;;;;39.13;25.52;;;13.60;99.90;;;;;;6244808;23;20473;-79
2022/06/09 04:11:16;;;;;;;38.15;25.95;;;13.60;99.90;;;;;;6219325;23;20020;-79
2022/06/09 04:13:42;;;;;;;41.22;26.40;;;13.60;99.90;;;;;;6219922;23;20012;-79
2022/06/09 04:16:19;;;;;;;39.60;24.38;;;13.60;99.90;;;;;;6219675;23;20451;-79
2022/06/09 04:18:45;;;;;;;33.38;24.00;;;13.70;99.90;;;;;;6219679;23;20027;-79
2022/06/09 04:21:16;;;;;;;41.20;24.55;;;13.60;99.90;;;;;;6244915;22;20018;-79
2022/06/09 04:23:43;;;;;;;39.72;25.23;;;13.70;99.90;;;;;;6219738;23;20457;-79
2022/06/09 04:26:15;;;;;;;37.45;24.83;;;13.70;99.90;;;;;;6219645;23;20470;-79
2022/06/09 04:28:41;;;;;;;37.05;24.92;;;13.80;99.90;;;;;;6245096;23;20019;-79
2022/06/09 04:31:07;;;;;;;33.08;24.15;;;13.80;99.90;;;;;;6219484;23;20478;-79
2022/06/09 04:33:33;;;;;;;31.10;20.48;;;13.80;99.90;;;;;;6244917;23;20016;-79
2022/06/09 04:35:58;;;;;;;24.40;18.38;;;13.80;99.90;;;;;;6245178;23;20016;-79
2022/06/09 04:38:24;;;;;;;25.88;19.20;;;13.80;99.90;;;;;;6219629;23;20020;-80
2022/06/09 04:40:52;;;;;;;29.27;20.52;;;13.80;99.90;;;;;;6219314;23;20085;-80
2022/06/09 04:43:25;;;;;;;29.15;19.60;;;13.90;99.90;;;;;;6219719;23;20023;-80
2022/06/09 04:45:53;;;;;;;22.45;18.00;;;13.90;99.90;;;;;;6245328;23;20023;-79
2022/06/09 04:48:19;;;;;;;28.73;19.65;;;13.90;99.90;;;;;;6244197;23;20015;-79
2022/06/09 04:50:44;;;;;;;25.83;19.75;;;14.00;99.90;;;;;;6218807;23;20016;-79
2022/06/09 04:53:13;;;;;;;28.00;20.42;;;14.00;99.90;;;;;;6218911;23;20027;-79
2022/06/09 04:55:41;;;;;;;32.20;22.33;;;14.00;99.90;;;;;;6218759;23;20044;-79
2022/06/09 04:58:07;;;;;;;37.50;22.45;;;14.00;99.90;;;;;;6244121;23;20018;-79
2022/06/09 05:00:33;;;;;;;32.78;23.27;;;14.00;99.90;;;;;;6243802;22;20099;-79
2022/06/09 05:03:00;;;;;;;24.50;19.83;;;14.10;99.90;;;;;;6218819;23;20442;-79
2022/06/09 05:05:32;;;;;;;29.55;19.73;;;14.10;99.90;;;;;;6219897;23;20442;-79
2022/06/09 05:07:59;;;;;;;29.45;19.27;;;14.20;99.90;;;;;;6246434;23;20094;-79
2022/06/09 05:10:26;;;;;;;;;;;14.10;99.90;;;;;;6221334;23;20012;-79
2022/06/09 05:12:52;;;;;;;25.13;19.10;;;14.20;99.90;;;;;;6220968;23;19958;-79
2022/06/09 05:15:19;;;;;;;29.10;19.25;;;14.20;99.90;;;;;;6245805;23;20012;-79
2022/06/09 05:17:45;;;;;;;27.38;19.38;;;14.30;99.90;;;;;;6220144;23;20018;-79
2022/06/09 05:20:13;;;;;;;26.40;20.10;;;14.30;99.90;;;;;;6244843;22;20016;-79
2022/06/09 05:22:39;;;;;;;33.65;20.40;;;14.40;99.90;;;;;;6220688;23;20016;-79
2022/06/09 05:25:06;;;;;;;25.40;19.83;;;14.40;99.90;;;;;;6221073;23;20012;-79
2022/06/09 05:27:32;;;;;;;24.65;17.83;;;14.60;99.90;;;;;;6221277;23;20015;-79
2022/06/09 05:30:01;;;;;;;28.33;18.98;;;14.60;99.90;;;;;;6221014;23;20013;-79
2022/06/09 05:32:27;;;;;;;23.70;17.45;;;14.70;99.90;;;;;;6196486;23;20015;-79
2022/06/09 05:34:52;;;;;;;27.88;16.88;;;14.70;99.90;;;;;;6220698;23;20012;-79
2022/06/09 05:37:18;;;;;;;20.92;15.30;;;14.80;99.90;;;;;;6221329;23;20414;-79
2022/06/09 05:45:14;;;;;;;22.70;15.57;;;15.30;99.90;;;;;;6246653;23;20386;-79
2022/06/09 05:47:40;;;;;;;23.95;15.73;;;15.50;99.90;;;;;;6221051;23;20069;-79
2022/06/09 05:50:07;;;;;;;19.65;13.57;;;15.70;99.90;;;;;;6220388;23;20013;-80
2022/06/09 05:52:33;;;;;;;17.60;10.95;;;15.90;99.90;;;;;;6245948;23;20022;-80
2022/06/09 05:54:59;;;;;;;18.48;10.00;;;16.00;99.90;;;;;;6221241;23;20012;-79
2022/06/09 05:57:26;;;;;;;13.50;9.70;;;16.20;99.90;;;;;;6220918;23;20073;-79
2022/06/09 05:59:53;;;;;;;11.32;7.90;;;16.40;99.90;;;;;;6220552;23;20016;-79
2022/06/09 06:02:23;;;;;;;22.83;8.02;;;16.60;99.50;;;;;;6245957;23;20347;-79
2022/06/09 06:05:01;;;;;;;;;;;;;;;;;;;;;
2022/06/09 06:07:27;;;;;;;12.57;6.60;;;16.90;98.70;;;;;;6246140;23;20016;-78
2022/06/09 06:09:53;;;;;;;13.07;6.30;;;17.10;98.70;;;;;;6220527;23;20391;-79
2022/06/09 06:12:21;;;;;;;9.88;5.90;;;17.20;97.40;;;;;;6245828;23;20016;-80
2022/06/09 06:14:48;;;;;;;11.75;5.55;;;17.40;98.00;;;;;;6220510;23;20008;-79
2022/06/09 06:17:16;;;;;;;11.32;5.65;;;17.50;97.50;;;;;;6245931;23;20087;-79
2022/06/09 06:19:41;;;;;;;9.35;5.22;;;17.50;96.80;;;;;;6220663;23;20102;-76
2022/06/09 06:22:07;;;;;;;8.77;5.68;;;17.60;96.00;;;;;;6247207;23;20013;-75
2022/06/09 06:24:33;;;;;;;8.88;4.38;;;17.70;96.70;;;;;;6245656;23;20023;-75
2022/06/09 06:26:58;;;;;;;8.98;3.75;;;17.80;95.20;;;;;;6220546;23;20016;-76
2022/06/09 06:29:25;;;;;;;9.18;3.67;;;17.80;95.20;;;;;;6245941;22;20074;-75
2022/06/09 06:31:51;;;;;;;6.85;2.78;;;17.90;95.10;;;;;;6246411;23;20012;-74
2022/06/09 06:35:45;;;;;;;10.13;3.13;;;17.90;94.70;;;;;;6245823;23;20016;-77
2022/06/09 06:37:45;;;;;;;6.55;2.70;;;18.00;95.00;;;;;;6226271;23;20066;-80
2022/06/09 06:40:15;;;;;;;7.97;2.50;;;18.20;94.20;;;;;;6218808;23;20450;-80
2022/06/09 06:42:41;;;;;;;8.60;2.60;;;18.30;93.70;;;;;;6218480;23;20083;-75
2022/06/09 06:45:09;;;;;;;8.93;2.65;;;18.40;93.40;;;;;;6242229;23;20331;-78
2022/06/09 06:47:35;;;;;;;10.85;2.42;;;18.30;93.50;;;;;;6241997;23;20022;-77
2022/06/09 06:50:29;;;;;;;5.75;2.10;;;18.40;92.80;;;;;;6241809;22;20016;-78
2022/06/09 06:52:55;;;;;;;6.90;1.95;;;18.50;92.30;;;;;;6242321;23;20020;-78
2022/06/09 06:55:22;;;;;;;8.60;2.10;;;18.40;92.50;;;;;;6216842;23;20012;-75
2022/06/09 06:57:48;;;;;;;10.45;2.50;;;18.50;92.60;;;;;;6216818;23;20023;-75
2022/06/09 07:00:17;;;;;;;;;;;18.50;92.80;;;;;;6243860;22;20505;-74
2022/06/09 07:02:47;;;;;;;7.85;1.80;;;18.60;92.30;;;;;;6218927;23;19915;-78
2022/06/09 07:05:17;;;;;;;4.57;1.77;;;18.60;92.10;;;;;;6244246;23;20020;-75
2022/06/09 07:07:43;;;;;;;8.95;1.92;;;18.80;92.30;;;;;;6243826;23;20020;-80
2022/06/09 07:10:10;;;;;;;10.98;2.10;;;18.80;92.40;;;;;;6218680;23;20065;-81
2022/06/09 07:12:37;;;;;;;9.82;2.00;;;18.80;92.10;;;;;;6244528;23;20018;-76
2022/06/09 07:15:04;;;;;;;9.30;2.05;;;18.90;92.00;;;;;;6218973;23;20016;-77
2022/06/09 07:17:30;;;;;;;10.30;2.05;;;19.00;90.20;;;;;;6244376;23;20051;-78
2022/06/09 07:20:05;;;;;;;12.68;2.42;;;19.10;91.30;;;;;;6245212;22;20016;-76
2022/06/09 07:22:33;;;;;;;8.38;2.13;;;19.20;90.90;;;;;;6221022;23;20034;-80
2022/06/09 07:24:59;;;;;;;10.65;1.98;;;19.20;90.80;;;;;;6220707;23;20479;-79
2022/06/09 07:27:25;;;;;;;7.65;1.70;;;19.20;90.50;;;;;;6219692;23;20455;-82
2022/06/09 07:29:51;;;;;;;10.75;1.95;;;19.10;91.00;;;;;;6219366;23;20335;-79
2022/06/09 07:32:19;;;;;;;13.20;2.28;;;19.40;90.70;;;;;;6245175;23;20008;-80
2022/06/09 07:34:45;;;;;;;13.75;2.17;;;19.40;90.10;;;;;;6220128;23;20117;-80
2022/06/09 07:37:12;;;;;;;9.38;3.10;;;19.40;88.30;;;;;;6245645;23;20439;-79
2022/06/09 07:39:37;;;;;;;9.75;2.20;;;19.50;89.30;;;;;;6245497;22;20016;-77
2022/06/09 07:42:04;;;;;;;11.70;2.30;;;19.50;90.00;;;;;;6220281;23;20023;-82
2022/06/09 07:44:29;;;;;;;11.93;1.77;;;19.60;90.00;;;;;;6220206;23;20055;-78
2022/06/09 07:46:55;;;;;;;8.68;2.28;;;19.70;89.60;;;;;;6223957;23;20041;-81
2022/06/09 07:49:21;;;;;;;12.23;2.50;;;19.60;89.70;;;;;;6225362;22;20050;-78
2022/06/09 07:51:47;;;;;;;14.25;2.22;;;19.70;90.00;;;;;;6221192;23;20020;-82
2022/06/09 07:54:13;;;;;;;8.38;1.92;;;19.90;89.90;;;;;;6219356;23;20085;-77
2022/06/09 07:56:39;;;;;;;12.88;1.98;;;20.00;87.70;;;;;;6220124;23;20016;-78
2022/06/09 07:59:06;;;;;;;12.75;2.63;;;20.00;88.10;;;;;;6221066;23;20095;-78
2022/06/09 08:01:33;;;;;;;9.23;2.17;;;20.00;87.60;;;;;;6220023;23;20469;-78
2022/06/09 08:03:59;;;;;;;6.85;1.63;;;20.10;88.00;;;;;;6245231;23;20012;-80
2022/06/09 08:06:24;;;;;;;14.73;2.60;;;20.00;86.70;;;;;;6219838;23;20056;-78
2022/06/09 08:08:52;;;;;;;13.02;2.60;;;20.00;84.90;;;;;;6220112;23;20514;-79
2022/06/09 08:11:21;;;;;;;12.48;2.45;;;20.00;86.10;;;;;;6219609;23;20020;-79
2022/06/09 08:13:50;;;;;;;12.70;2.78;;;20.10;86.40;;;;;;6245230;23;20390;-76
2022/06/09 08:16:16;;;;;;;9.88;2.10;;;20.00;86.20;;;;;;6244956;23;20023;-81
2022/06/09 08:18:42;;;;;;;13.00;2.35;;;20.10;86.00;;;;;;6245038;23;20012;-78
2022/06/09 08:21:07;;;;;;;7.15;2.03;;;20.00;86.50;;;;;;6244873;22;20063;-77
2022/06/09 08:23:33;;;;;;;13.43;2.08;;;20.10;86.90;;;;;;6219629;23;20074;-80
2022/06/09 08:25:59;;;;;;;9.15;1.88;;;20.30;86.00;;;;;;6219387;23;20020;-80
2022/06/09 08:28:26;;;;;;;12.13;2.33;;;20.30;86.10;;;;;;6219843;23;20320;-83
2022/06/09 08:30:54;;;;;;;11.85;1.83;;;20.50;85.90;;;;;;6219093;23;20406;-79
2022/06/09 08:33:21;;;;;;;8.20;2.28;;;20.60;85.90;;;;;;6244542;23;20008;-78
2022/06/09 08:35:51;;;;;;;10.43;2.15;;;20.50;84.00;;;;;;6219593;23;20334;-79
2022/06/09 08:38:17;;;;;;;13.45;2.03;;;20.60;84.10;;;;;;6219343;23;20016;-80
2022/06/09 08:40:58;;;;;;;10.30;2.00;;;20.50;83.60;;;;;;6219174;23;20012;-82
2022/06/09 08:43:43;;;;;;;11.55;2.25;;;20.60;83.50;;;;;;6244551;23;20382;-80
2022/06/09 08:46:42;;;;;;;12.18;2.33;;;20.70;82.20;;;;;;6219138;23;20087;-78
2022/06/09 08:49:39;;;;;;;10.60;1.83;;;20.70;81.00;;;;;;6158570;23;20107;-80
2022/06/09 08:52:39;;;;;;;10.52;1.88;;;20.60;81.90;;;;;;6219471;23;20027;-81
2022/06/09 08:55:16;;;;;;;12.40;2.50;;;20.90;82.00;;;;;;6219506;23;20023;-78
2022/06/09 08:57:45;;;;;;;9.38;1.75;;;20.90;81.20;;;;;;6219539;23;20339;-77
2022/06/09 09:00:13;;;;;;;13.10;2.00;;;21.00;81.70;;;;;;6244677;22;20151;-77
2022/06/09 09:03:05;;;;;;;10.85;2.58;;;21.00;82.10;;;;;;6245025;23;20048;-78
2022/06/09 09:05:39;;;;;;;14.70;3.15;;;21.00;82.20;;;;;;6202435;23;20020;-80
2022/06/09 09:08:13;;;;;;;8.10;1.90;;;21.10;81.50;;;;;;6218720;23;20019;-77
2022/06/09 09:14:46;;;;;;;12.40;2.00;;;21.20;81.10;;;;;;6217238;23;20016;-81
2022/06/09 09:17:21;;;;;;;12.32;2.92;;;20.80;81.00;;;;;;6219143;23;20023;-74
2022/06/09 09:20:04;;;;;;;11.65;2.45;;;20.70;82.20;;;;;;6219280;22;20024;-78
2022/06/09 09:23:07;;;;;;;13.68;2.53;;;20.80;82.50;;;;;;6243984;23;20095;-79
2022/06/09 09:25:54;;;;;;;14.93;2.70;;;20.90;82.30;;;;;;6244577;23;20022;-77
2022/06/09 09:28:35;;;;;;;9.87;1.93;;;20.90;82.00;;;;;;6218899;23;20047;-80
2022/06/09 09:31:26;;;;;;;9.18;2.25;;;20.90;80.30;;;;;;6219147;23;20453;-79
2022/06/09 09:33:51;;;;;;;20.52;2.90;;;20.80;80.80;;;;;;6243508;23;20434;-79
2022/06/09 09:36:23;;;;;;;8.07;1.77;;;20.70;81.70;;;;;;6243688;23;20050;-77
2022/06/09 09:39:04;;;;;;;10.40;2.55;;;21.00;81.50;;;;;;6243672;23;20016;-78
2022/06/09 09:41:48;;;;;;;10.77;2.10;;;20.90;79.80;;;;;;6244330;22;20098;-80
2022/06/09 09:44:23;;;;;;;12.73;2.03;;;20.70;80.10;;;;;;6244402;23;20016;-78
2022/06/09 09:46:58;;;;;;;11.02;1.83;;;20.60;80.90;;;;;;6242927;23;20447;-79
2022/06/09 09:49:50;;;;;;;10.90;1.80;;;20.60;80.20;;;;;;6217410;23;20016;-78
2022/06/09 09:52:42;;;;;;;15.90;2.75;;;20.90;80.10;;;;;;6220395;23;20133;-77
2022/06/09 09:55:35;;;;;;;8.15;2.20;;;21.10;79.90;;;;;;6221142;23;20066;-79
2022/06/09 09:58:25;;;;;;;10.38;2.35;;;21.40;79.20;;;;;;6220625;23;20340;-76
2022/06/09 10:01:19;;;;;;;12.85;1.88;;;21.40;76.30;;;;;;6221413;23;20016;-77
2022/06/09 10:13:35;;;;;;;9.38;1.95;;;21.60;75.90;;;;;;6189768;23;20012;-79
2022/06/09 10:16:10;;;;;;;9.88;2.03;;;21.60;75.20;;;;;;6223267;23;20462;-83
2022/06/09 10:18:56;;;;;;;11.93;1.92;;;21.40;74.70;;;;;;6221509;23;20016;-80
2022/06/09 10:21:30;;;;;;;11.07;1.73;;;21.60;75.90;;;;;;6220511;23;20023;-80
2022/06/09 10:31:53;;;;;;;8.13;1.50;;;21.30;77.10;;;;;;6180897;23;20387;-79
2022/06/09 10:35:00;;;;;;;9.05;1.88;;;21.50;75.30;;;;;;6156123;23;20017;-76
2022/06/09 10:44:54;;;;;;;9.85;1.77;;;21.90;74.60;;;;;;6093263;23;20065;-76
2022/06/09 10:57:40;;;;;;;10.43;2.17;;;21.90;72.70;;;;;;6243269;23;20081;-73
2022/06/09 11:00:13;;;;;;;10.63;1.83;;;22.10;75.60;;;;;;6243933;22;20023;-71
2022/06/09 11:02:43;;;;;;;10.60;2.10;;;22.30;74.80;;;;;;6243317;23;20017;-74
2022/06/09 11:05:13;;;;;;;7.80;1.77;;;22.10;74.00;;;;;;6218909;23;20528;-73
2022/06/09 11:08:07;;;;;;;11.13;2.03;;;21.90;72.90;;;;;;6218954;23;20423;-75
2022/06/09 11:10:54;;;;;;;8.50;2.15;;;22.00;73.40;;;;;;6244176;22;20017;-73
2022/06/09 11:13:26;;;;;;;;;;;21.90;74.50;;;;;;6218884;23;20020;-76
2022/06/09 11:16:11;;;;;;;9.90;2.03;;;21.70;75.20;;;;;;6218789;23;19915;-75
2022/06/09 11:18:46;;;;;;;14.48;2.60;;;21.70;76.10;;;;;;6218838;23;20351;-77
2022/06/09 11:21:44;;;;;;;12.00;2.20;;;21.80;75.60;;;;;;6218559;23;20027;-77
2022/06/09 11:24:28;;;;;;;10.93;2.05;;;21.80;75.10;;;;;;6208731;23;20020;-77
2022/06/09 11:30:57;;;;;;;12.38;2.50;;;21.70;75.30;;;;;;6153548;22;20066;-80
2022/06/09 11:34:04;;;;;;;18.27;2.95;;;21.90;74.70;;;;;;6218083;23;20051;-76
2022/06/09 11:36:56;;;;;;;18.38;2.70;;;22.10;75.20;;;;;;6243518;23;20016;-75
2022/06/09 11:46:59;;;;;;;9.55;2.28;;;21.70;74.50;;;;;;6188542;22;20020;-77
2022/06/09 11:49:43;;;;;;;11.13;1.83;;;21.40;73.90;;;;;;6243243;23;20512;-77
2022/06/09 11:52:44;;;;;;;12.50;2.55;;;21.40;74.70;;;;;;6188338;23;20025;-76
2022/06/09 11:55:28;;;;;;;14.48;2.45;;;21.60;76.60;;;;;;6163440;23;20017;-77
2022/06/09 11:57:54;;;;;;;9.75;2.35;;;21.60;74.80;;;;;;6188208;23;20020;-77
2022/06/09 12:00:30;;;;;;;8.73;1.77;;;21.50;74.10;;;;;;6187776;23;20012;-79
2022/06/09 12:03:33;;;;;;;9.52;2.00;;;21.50;73.80;;;;;;6163138;23;20363;-78
2022/06/09 12:06:06;;;;;;;10.82;2.58;;;21.50;74.00;;;;;;6162909;23;20012;-79
2022/06/09 12:09:22;;;;;;;10.18;2.95;;;21.40;75.00;;;;;;6187837;23;20016;-75
2022/06/09 12:12:01;;;;;;;11.15;2.15;;;21.30;75.10;;;;;;6068651;23;20062;-76
2022/06/09 12:14:37;;;;;;;11.50;2.53;;;21.30;76.40;;;;;;6068696;23;20018;-73
2022/06/09 12:17:19;;;;;;;15.95;2.05;;;21.60;76.50;;;;;;6181844;23;20019;-77
2022/06/09 12:19:55;;;;;;;13.93;2.60;;;21.50;76.40;;;;;;6162983;23;20025;-77
2022/06/09 12:23:01;;;;;;;11.48;2.25;;;21.80;73.90;;;;;;6187901;23;20079;-79
2022/06/09 12:25:36;;;;;;;8.73;2.17;;;21.80;73.80;;;;;;6163391;23;20016;-74
2022/06/09 12:28:22;;;;;;;9.38;2.10;;;21.70;75.10;;;;;;6188064;23;20012;-75
2022/06/09 12:31:10;;;;;;;11.30;2.65;;;21.40;73.10;;;;;;6214525;23;20027;-75
2022/06/09 12:33:37;;;;;;;8.75;2.05;;;21.20;75.50;;;;;;6162793;23;20031;-73
2022/06/09 12:36:11;;;;;;;15.88;2.83;;;21.30;75.60;;;;;;6187965;23;20017;-73
2022/06/09 12:38:50;;;;;;;15.27;2.45;;;21.40;76.00;;;;;;6163195;23;20128;-73
2022/06/09 12:41:30;;;;;;;15.52;2.60;;;21.50;75.20;;;;;;6163118;23;20078;-73
2022/06/09 12:44:04;;;;;;;10.60;2.05;;;21.50;73.90;;;;;;6189247;23;20043;-73
2022/06/09 12:46:31;;;;;;;13.40;2.20;;;21.60;74.30;;;;;;6189339;23;20316;-70
2022/06/09 12:48:57;;;;;;;16.40;2.13;;;21.40;74.20;;;;;;6189781;23;20096;-71
2022/06/09 12:51:25;;;;;;;;;;;21.60;73.00;;;;;;6176095;23;20357;-71
2022/06/09 12:54:22;;;;;;;9.13;1.85;;;21.40;72.30;;;;;;6244758;23;20384;-70
2022/06/09 12:57:26;;;;;;;12.67;2.53;;;21.40;73.10;;;;;;6233158;23;20038;-75
2022/06/09 13:00:14;;;;;;;8.70;1.95;;;21.50;74.20;;;;;;6241482;22;20462;-71
2022/06/09 13:02:40;;;;;;;9.40;2.42;;;21.60;72.40;;;;;;6242917;23;20439;-71
2022/06/09 13:05:15;;;;;;;15.15;1.60;;;21.70;74.30;;;;;;6218512;23;20387;-76
2022/06/09 13:07:54;;;;;;;10.65;2.17;;;21.70;72.40;;;;;;6244215;23;20054;-83
2022/06/09 20:35:26;;;;;;;13.73;4.18;;;14.50;92.10;;;;;;5904207;24;20081;-82
2022/06/09 20:39:43;;;;;;;;;;;;;;;;;;;;;
2022/06/09 20:54:49;;;;;;;;;;;;;;;;;;;;;
2022/06/09 21:05:21;;;;;;;;;;;;;;;;;;;;;
2022/06/09 21:43:10;;;;;;;;;;;;;;;;;;;;;
2022/06/09 21:51:25;;;;;;;;;;;;;;;;;;;;;
2022/06/09 21:54:29;;;;;;;12.25;4.07;;;13.20;94.70;;;;;;5751007;24;20006;-75
2022/06/09 21:56:55;;;;;;;14.63;4.00;;;13.00;93.50;;;;;;5836355;24;20088;-78
2022/06/09 21:59:24;;;;;;;15.27;3.90;;;13.00;93.60;;;;;;5917955;23;20364;-74
2022/06/09 22:01:52;;;;;;;14.70;4.03;;;13.10;93.50;;;;;;5991496;23;20019;-79
2022/06/09 22:04:18;;;;;;;15.77;4.20;;;13.10;93.50;;;;;;5945897;23;20016;-80
2022/06/09 22:07:22;;;;;;;13.02;3.80;;;13.10;93.30;;;;;;6082422;23;20021;-77
2022/06/09 22:09:48;;;;;;;11.23;4.07;;;13.10;93.90;;;;;;6106118;23;20013;-72
2022/06/09 22:12:16;;;;;;;18.30;5.15;;;13.00;93.40;;;;;;6125629;23;20512;-70
2022/06/09 22:14:42;;;;;;;10.10;3.85;;;13.00;93.50;;;;;;6156740;23;20053;-74
2022/06/09 22:17:08;;;;;;;19.58;4.22;;;13.10;93.30;;;;;;6130909;23;20017;-73
2022/06/09 22:19:34;;;;;;;16.60;4.25;;;13.10;93.30;;;;;;6107784;23;20025;-74
2022/06/09 22:21:59;;;;;;;12.07;3.80;;;13.00;93.50;;;;;;6108545;23;20018;-72
2022/06/09 22:24:25;;;;;;;12.27;3.63;;;13.00;93.40;;;;;;6134811;23;20032;-75
2022/06/09 22:26:51;;;;;;;12.55;4.13;;;13.00;93.50;;;;;;6108378;23;20022;-75
2022/06/09 22:29:17;;;;;;;8.63;3.75;;;13.00;93.50;;;;;;6133365;23;20018;-75
2022/06/09 22:31:42;;;;;;;10.10;4.53;;;13.00;93.60;;;;;;6108502;23;20440;-77
2022/06/09 22:34:08;;;;;;;15.52;4.45;;;13.00;93.30;;;;;;6131453;23;20253;-78